createdAt,value
2023-03-07T00:09:32.987Z,967
2023-03-07T00:28:50.285Z,966.8
2023-03-07T00:48:07.937Z,966.6
2023-03-07T01:07:27.501Z,966.4
2023-03-07T01:26:45.970Z,966.2
2023-03-07T01:46:05.350Z,966.1
2023-03-07T02:05:24.403Z,965.9
2023-03-07T03:46:48.013Z,965.1
2023-03-07T04:06:06.192Z,965
2023-03-07T04:25:24.894Z,964.7
2023-03-07T04:44:43.150Z,964.5
2023-03-07T05:04:02.637Z,964.3
2023-03-07T05:23:22.695Z,964.2
2023-03-07T05:42:39.087Z,964
2023-03-07T06:01:56.493Z,964.1
2023-03-07T06:21:15.280Z,964
2023-03-07T06:40:34.074Z,963.9
2023-03-07T06:59:53.859Z,963.8
2023-03-07T07:19:14.205Z,963.8
2023-03-07T07:38:33.457Z,963.8
2023-03-07T07:57:53.288Z,963.8
2023-03-07T08:17:12.302Z,963.6
2023-03-07T08:36:31.230Z,963.7
2023-03-07T08:55:48.574Z,963.6
2023-03-07T09:15:07.536Z,963.7
2023-03-07T09:34:27.021Z,963.6
2023-03-07T09:53:46.923Z,963.5
2023-03-07T10:13:03.446Z,963.4
2023-03-07T10:32:23.676Z,963.2
2023-03-07T10:51:42.697Z,963.2
2023-03-07T11:10:59.942Z,963.2
2023-03-07T11:30:18.213Z,963.2
2023-03-07T11:49:36.432Z,963.2
2023-03-07T12:08:57.782Z,963.2
2023-03-07T12:28:15.728Z,963.1
2023-03-07T12:47:34.673Z,963.2
2023-03-07T13:06:52.147Z,963.1
2023-03-07T13:26:10.835Z,963.1
2023-03-07T13:45:29.707Z,963.2
2023-03-07T14:04:48.540Z,963.1
2023-03-07T14:24:07.466Z,963.3
2023-03-07T14:43:26.472Z,963.3
2023-03-07T15:02:47.968Z,963.5
2023-03-07T15:22:06.939Z,963.5
2023-03-07T15:41:23.797Z,963.7
2023-03-07T16:00:42.475Z,963.8
2023-03-07T16:20:01.635Z,963.8
2023-03-07T16:39:21.703Z,963.9
2023-03-07T16:58:39.569Z,964.1
2023-03-07T17:17:57.488Z,964.4
2023-03-07T17:37:16.925Z,964.7
2023-03-07T17:56:35.869Z,964.8
2023-03-07T18:15:54.926Z,965.1
2023-03-07T18:35:14.221Z,965.2
2023-03-07T18:54:34.258Z,965.3
2023-03-07T19:13:52.332Z,965.5
2023-03-07T19:33:10.821Z,965.5
2023-03-07T19:52:29.786Z,965.9
2023-03-07T20:11:49.112Z,966
2023-03-07T20:31:08.784Z,966.3
2023-03-07T20:50:27.721Z,966.6
2023-03-07T21:09:46.184Z,966.7
2023-03-07T21:29:04.288Z,966.8
2023-03-07T21:48:20.850Z,966.9
2023-03-07T22:07:39.144Z,967
2023-03-07T22:26:58.956Z,967.1
2023-03-07T22:46:14.868Z,967.3
2023-03-07T23:05:33.757Z,967.4
2023-03-07T23:24:53.734Z,967.3
2023-03-07T23:44:11.841Z,967.4
